sensor_id;sensor_type;location;lat;lon;timestamp;P1;durP1;ratioP1;P2;durP2;ratioP2
13335;SDS011;6737;51.480;11.962;2022-09-16T00:01:35;6.30;;;2.03;;
13335;SDS011;6737;51.480;11.962;2022-09-16T00:04:00;3.90;;;1.30;;
13335;SDS011;6737;51.480;11.962;2022-09-16T00:06:27;2.97;;;1.50;;
13335;SDS011;6737;51.480;11.962;2022-09-16T00:08:55;5.17;;;1.40;;
13335;SDS011;6737;51.480;11.962;2022-09-16T00:11:22;4.17;;;1.30;;
13335;SDS011;6737;51.480;11.962;2022-09-16T00:13:48;5.33;;;1.60;;
13335;SDS011;6737;51.480;11.962;2022-09-16T00:16:19;5.07;;;1.47;;
13335;SDS011;6737;51.480;11.962;2022-09-16T00:18:56;6.30;;;1.37;;
13335;SDS011;6737;51.480;11.962;2022-09-16T00:21:25;3.00;;;1.33;;
13335;SDS011;6737;51.480;11.962;2022-09-16T00:23:53;6.00;;;1.63;;
13335;SDS011;6737;51.480;11.962;2022-09-16T00:26:20;4.00;;;1.50;;
13335;SDS011;6737;51.480;11.962;2022-09-16T00:28:47;2.40;;;1.40;;
13335;SDS011;6737;51.480;11.962;2022-09-16T00:31:14;3.80;;;1.50;;
13335;SDS011;6737;51.480;11.962;2022-09-16T00:33:40;3.03;;;1.30;;
13335;SDS011;6737;51.480;11.962;2022-09-16T00:36:10;3.03;;;1.30;;
13335;SDS011;6737;51.480;11.962;2022-09-16T00:38:39;2.13;;;1.20;;
13335;SDS011;6737;51.480;11.962;2022-09-16T00:41:06;6.97;;;1.30;;
13335;SDS011;6737;51.480;11.962;2022-09-16T00:43:50;3.83;;;1.50;;
13335;SDS011;6737;51.480;11.962;2022-09-16T00:46:24;5.00;;;1.50;;
13335;SDS011;6737;51.480;11.962;2022-09-16T00:49:06;1.60;;;1.17;;
13335;SDS011;6737;51.480;11.962;2022-09-16T00:51:58;4.20;;;1.90;;
13335;SDS011;6737;51.480;11.962;2022-09-16T00:54:28;6.97;;;1.43;;
13335;SDS011;6737;51.480;11.962;2022-09-16T00:56:56;6.73;;;1.40;;
13335;SDS011;6737;51.480;11.962;2022-09-16T00:59:25;2.87;;;1.40;;
13335;SDS011;6737;51.480;11.962;2022-09-16T01:01:54;3.53;;;1.27;;
13335;SDS011;6737;51.480;11.962;2022-09-16T01:04:25;3.60;;;1.50;;
13335;SDS011;6737;51.480;11.962;2022-09-16T01:06:53;3.33;;;1.50;;
13335;SDS011;6737;51.480;11.962;2022-09-16T01:09:21;2.53;;;1.30;;
13335;SDS011;6737;51.480;11.962;2022-09-16T01:11:49;2.43;;;1.10;;
13335;SDS011;6737;51.480;11.962;2022-09-16T01:14:16;3.63;;;1.30;;
13335;SDS011;6737;51.480;11.962;2022-09-16T01:17:24;2.93;;;1.20;;
13335;SDS011;6737;51.480;11.962;2022-09-16T01:20:09;2.87;;;1.30;;
13335;SDS011;6737;51.480;11.962;2022-09-16T01:31:28;3.00;;;1.20;;
13335;SDS011;6737;51.480;11.962;2022-09-16T01:40:43;2.13;;;1.20;;
13335;SDS011;6737;51.480;11.962;2022-09-16T01:43:20;3.33;;;1.30;;
13335;SDS011;6737;51.480;11.962;2022-09-16T01:46:07;4.63;;;1.40;;
13335;SDS011;6737;51.480;11.962;2022-09-16T01:48:43;2.90;;;1.20;;
13335;SDS011;6737;51.480;11.962;2022-09-16T01:56:41;4.57;;;1.50;;
13335;SDS011;6737;51.480;11.962;2022-09-16T01:59:20;2.40;;;1.30;;
13335;SDS011;6737;51.480;11.962;2022-09-16T02:02:11;3.90;;;1.53;;
13335;SDS011;6737;51.480;11.962;2022-09-16T02:04:59;3.77;;;1.40;;
13335;SDS011;6737;51.480;11.962;2022-09-16T02:07:31;5.87;;;1.50;;
13335;SDS011;6737;51.480;11.962;2022-09-16T02:10:07;5.73;;;1.20;;
13335;SDS011;6737;51.480;11.962;2022-09-16T02:12:41;4.70;;;1.20;;
13335;SDS011;6737;51.480;11.962;2022-09-16T02:15:10;5.87;;;1.50;;
13335;SDS011;6737;51.480;11.962;2022-09-16T02:17:43;3.67;;;1.40;;
13335;SDS011;6737;51.480;11.962;2022-09-16T02:20:16;4.23;;;1.40;;
13335;SDS011;6737;51.480;11.962;2022-09-16T02:22:50;4.53;;;1.20;;
13335;SDS011;6737;51.480;11.962;2022-09-16T02:25:21;1.70;;;1.17;;
13335;SDS011;6737;51.480;11.962;2022-09-16T02:27:48;3.93;;;1.43;;
13335;SDS011;6737;51.480;11.962;2022-09-16T02:30:17;6.13;;;1.30;;
13335;SDS011;6737;51.480;11.962;2022-09-16T02:32:48;4.33;;;1.40;;
13335;SDS011;6737;51.480;11.962;2022-09-16T02:35:24;4.90;;;1.30;;
13335;SDS011;6737;51.480;11.962;2022-09-16T02:38:00;2.73;;;1.10;;
13335;SDS011;6737;51.480;11.962;2022-09-16T02:40:34;5.13;;;1.30;;
13335;SDS011;6737;51.480;11.962;2022-09-16T02:43:06;4.93;;;1.17;;
13335;SDS011;6737;51.480;11.962;2022-09-16T02:48:42;2.87;;;1.20;;
13335;SDS011;6737;51.480;11.962;2022-09-16T02:57:22;3.20;;;1.30;;
13335;SDS011;6737;51.480;11.962;2022-09-16T02:59:48;4.53;;;1.37;;
13335;SDS011;6737;51.480;11.962;2022-09-16T03:02:14;5.90;;;1.40;;
13335;SDS011;6737;51.480;11.962;2022-09-16T03:04:40;2.50;;;1.20;;
13335;SDS011;6737;51.480;11.962;2022-09-16T03:07:07;1.90;;;1.10;;
13335;SDS011;6737;51.480;11.962;2022-09-16T03:09:36;4.30;;;1.30;;
13335;SDS011;6737;51.480;11.962;2022-09-16T03:14:55;2.83;;;1.30;;
13335;SDS011;6737;51.480;11.962;2022-09-16T03:26:46;3.17;;;1.57;;
13335;SDS011;6737;51.480;11.962;2022-09-16T03:29:27;2.67;;;1.10;;
13335;SDS011;6737;51.480;11.962;2022-09-16T03:35:29;2.43;;;1.27;;
13335;SDS011;6737;51.480;11.962;2022-09-16T03:37:42;3.67;;;1.50;;
13335;SDS011;6737;51.480;11.962;2022-09-16T03:40:11;5.37;;;1.50;;
13335;SDS011;6737;51.480;11.962;2022-09-16T03:42:42;3.53;;;1.57;;
13335;SDS011;6737;51.480;11.962;2022-09-16T03:45:11;3.33;;;1.27;;
13335;SDS011;6737;51.480;11.962;2022-09-16T03:47:42;3.40;;;1.50;;
13335;SDS011;6737;51.480;11.962;2022-09-16T03:50:10;2.80;;;1.40;;
13335;SDS011;6737;51.480;11.962;2022-09-16T03:52:36;4.97;;;1.77;;
13335;SDS011;6737;51.480;11.962;2022-09-16T03:55:02;3.77;;;1.80;;
13335;SDS011;6737;51.480;11.962;2022-09-16T03:57:28;7.53;;;1.73;;
13335;SDS011;6737;51.480;11.962;2022-09-16T03:59:54;2.80;;;1.50;;
13335;SDS011;6737;51.480;11.962;2022-09-16T04:02:21;6.17;;;1.70;;
13335;SDS011;6737;51.480;11.962;2022-09-16T04:04:47;5.33;;;1.40;;
13335;SDS011;6737;51.480;11.962;2022-09-16T04:07:13;4.10;;;1.33;;
13335;SDS011;6737;51.480;11.962;2022-09-16T04:09:39;4.83;;;1.70;;
13335;SDS011;6737;51.480;11.962;2022-09-16T04:12:05;4.20;;;1.30;;
13335;SDS011;6737;51.480;11.962;2022-09-16T04:14:32;6.30;;;1.60;;
13335;SDS011;6737;51.480;11.962;2022-09-16T04:16:58;2.80;;;1.33;;
13335;SDS011;6737;51.480;11.962;2022-09-16T04:19:24;6.10;;;1.30;;
13335;SDS011;6737;51.480;11.962;2022-09-16T04:21:50;4.23;;;1.37;;
13335;SDS011;6737;51.480;11.962;2022-09-16T04:24:16;3.17;;;1.30;;
13335;SDS011;6737;51.480;11.962;2022-09-16T04:26:42;2.63;;;1.23;;
13335;SDS011;6737;51.480;11.962;2022-09-16T04:29:07;4.20;;;1.50;;
13335;SDS011;6737;51.480;11.962;2022-09-16T04:31:33;3.97;;;1.47;;
13335;SDS011;6737;51.480;11.962;2022-09-16T04:34:00;3.57;;;1.50;;
13335;SDS011;6737;51.480;11.962;2022-09-16T04:36:26;4.50;;;1.40;;
13335;SDS011;6737;51.480;11.962;2022-09-16T04:38:52;4.00;;;1.60;;
13335;SDS011;6737;51.480;11.962;2022-09-16T04:41:19;8.27;;;1.70;;
13335;SDS011;6737;51.480;11.962;2022-09-16T04:43:50;3.27;;;1.40;;
13335;SDS011;6737;51.480;11.962;2022-09-16T04:46:26;3.43;;;1.30;;
13335;SDS011;6737;51.480;11.962;2022-09-16T04:48:53;5.77;;;1.47;;
13335;SDS011;6737;51.480;11.962;2022-09-16T04:51:20;2.87;;;1.30;;
13335;SDS011;6737;51.480;11.962;2022-09-16T04:53:48;3.60;;;1.40;;
13335;SDS011;6737;51.480;11.962;2022-09-16T04:56:18;3.03;;;1.27;;
13335;SDS011;6737;51.480;11.962;2022-09-16T04:58:46;3.97;;;1.63;;
13335;SDS011;6737;51.480;11.962;2022-09-16T05:01:18;6.53;;;1.50;;
13335;SDS011;6737;51.480;11.962;2022-09-16T05:03:46;5.47;;;1.57;;
13335;SDS011;6737;51.480;11.962;2022-09-16T05:06:15;3.23;;;1.33;;
13335;SDS011;6737;51.480;11.962;2022-09-16T05:08:45;4.33;;;1.60;;
13335;SDS011;6737;51.480;11.962;2022-09-16T05:11:13;5.30;;;1.60;;
13335;SDS011;6737;51.480;11.962;2022-09-16T05:13:49;6.40;;;1.50;;
13335;SDS011;6737;51.480;11.962;2022-09-16T05:16:17;3.43;;;1.57;;
13335;SDS011;6737;51.480;11.962;2022-09-16T05:18:48;2.00;;;1.30;;
13335;SDS011;6737;51.480;11.962;2022-09-16T05:21:17;5.10;;;1.60;;
13335;SDS011;6737;51.480;11.962;2022-09-16T05:23:45;2.93;;;1.60;;
13335;SDS011;6737;51.480;11.962;2022-09-16T05:26:12;5.47;;;1.53;;
13335;SDS011;6737;51.480;11.962;2022-09-16T05:28:41;6.37;;;1.70;;
13335;SDS011;6737;51.480;11.962;2022-09-16T05:31:11;3.57;;;1.40;;
13335;SDS011;6737;51.480;11.962;2022-09-16T05:33:43;5.70;;;1.53;;
13335;SDS011;6737;51.480;11.962;2022-09-16T05:36:23;4.33;;;1.77;;
13335;SDS011;6737;51.480;11.962;2022-09-16T05:38:50;4.70;;;1.40;;
13335;SDS011;6737;51.480;11.962;2022-09-16T05:41:16;7.40;;;1.47;;
13335;SDS011;6737;51.480;11.962;2022-09-16T05:43:42;4.57;;;1.30;;
13335;SDS011;6737;51.480;11.962;2022-09-16T05:46:08;4.23;;;1.50;;
13335;SDS011;6737;51.480;11.962;2022-09-16T05:48:42;3.20;;;1.30;;
13335;SDS011;6737;51.480;11.962;2022-09-16T05:51:08;4.00;;;1.83;;
13335;SDS011;6737;51.480;11.962;2022-09-16T05:53:38;5.57;;;1.30;;
13335;SDS011;6737;51.480;11.962;2022-09-16T05:56:09;2.93;;;1.40;;
13335;SDS011;6737;51.480;11.962;2022-09-16T05:58:37;5.20;;;1.47;;
13335;SDS011;6737;51.480;11.962;2022-09-16T06:01:04;4.20;;;1.60;;
13335;SDS011;6737;51.480;11.962;2022-09-16T06:03:33;6.37;;;1.50;;
13335;SDS011;6737;51.480;11.962;2022-09-16T06:06:01;4.07;;;1.30;;
13335;SDS011;6737;51.480;11.962;2022-09-16T06:08:28;2.40;;;1.33;;
13335;SDS011;6737;51.480;11.962;2022-09-16T06:10:58;5.80;;;1.50;;
13335;SDS011;6737;51.480;11.962;2022-09-16T06:13:25;5.63;;;1.40;;
13335;SDS011;6737;51.480;11.962;2022-09-16T06:15:52;2.90;;;1.13;;
13335;SDS011;6737;51.480;11.962;2022-09-16T06:18:21;4.90;;;1.20;;
13335;SDS011;6737;51.480;11.962;2022-09-16T06:20:48;6.83;;;1.47;;
13335;SDS011;6737;51.480;11.962;2022-09-16T06:23:15;2.93;;;1.13;;
13335;SDS011;6737;51.480;11.962;2022-09-16T06:25:41;4.97;;;1.30;;
13335;SDS011;6737;51.480;11.962;2022-09-16T06:28:08;3.50;;;1.07;;
13335;SDS011;6737;51.480;11.962;2022-09-16T06:30:38;4.10;;;1.20;;
13335;SDS011;6737;51.480;11.962;2022-09-16T06:33:04;3.70;;;1.20;;
13335;SDS011;6737;51.480;11.962;2022-09-16T06:35:33;6.17;;;1.10;;
13335;SDS011;6737;51.480;11.962;2022-09-16T06:37:59;6.27;;;1.30;;
13335;SDS011;6737;51.480;11.962;2022-09-16T06:40:26;4.13;;;1.30;;
13335;SDS011;6737;51.480;11.962;2022-09-16T06:42:52;1.83;;;1.10;;
13335;SDS011;6737;51.480;11.962;2022-09-16T06:45:19;3.27;;;1.00;;
13335;SDS011;6737;51.480;11.962;2022-09-16T06:47:46;3.07;;;1.20;;
13335;SDS011;6737;51.480;11.962;2022-09-16T06:50:11;2.77;;;0.90;;
13335;SDS011;6737;51.480;11.962;2022-09-16T06:52:37;3.37;;;1.10;;
13335;SDS011;6737;51.480;11.962;2022-09-16T06:55:03;2.77;;;1.00;;
13335;SDS011;6737;51.480;11.962;2022-09-16T06:57:29;2.57;;;1.00;;
13335;SDS011;6737;51.480;11.962;2022-09-16T06:59:55;2.23;;;1.00;;
13335;SDS011;6737;51.480;11.962;2022-09-16T07:02:21;5.70;;;1.13;;
13335;SDS011;6737;51.480;11.962;2022-09-16T07:04:47;1.80;;;1.00;;
13335;SDS011;6737;51.480;11.962;2022-09-16T07:07:13;3.83;;;1.13;;
13335;SDS011;6737;51.480;11.962;2022-09-16T07:09:39;3.67;;;1.10;;
13335;SDS011;6737;51.480;11.962;2022-09-16T07:12:06;4.00;;;1.00;;
13335;SDS011;6737;51.480;11.962;2022-09-16T07:14:32;2.13;;;1.00;;
13335;SDS011;6737;51.480;11.962;2022-09-16T07:16:58;3.27;;;1.27;;
13335;SDS011;6737;51.480;11.962;2022-09-16T07:19:25;3.47;;;1.17;;
13335;SDS011;6737;51.480;11.962;2022-09-16T07:21:52;6.23;;;1.13;;
13335;SDS011;6737;51.480;11.962;2022-09-16T07:24:18;4.77;;;1.33;;
13335;SDS011;6737;51.480;11.962;2022-09-16T07:26:44;5.43;;;1.50;;
13335;SDS011;6737;51.480;11.962;2022-09-16T07:29:11;4.50;;;1.10;;
13335;SDS011;6737;51.480;11.962;2022-09-16T07:31:39;2.87;;;1.50;;
13335;SDS011;6737;51.480;11.962;2022-09-16T07:34:06;4.20;;;1.30;;
13335;SDS011;6737;51.480;11.962;2022-09-16T07:36:35;3.57;;;1.50;;
13335;SDS011;6737;51.480;11.962;2022-09-16T07:39:03;3.70;;;1.33;;
13335;SDS011;6737;51.480;11.962;2022-09-16T07:41:38;5.10;;;1.40;;
13335;SDS011;6737;51.480;11.962;2022-09-16T07:44:06;4.27;;;1.00;;
13335;SDS011;6737;51.480;11.962;2022-09-16T07:46:34;4.10;;;1.30;;
13335;SDS011;6737;51.480;11.962;2022-09-16T07:49:02;3.83;;;1.30;;
13335;SDS011;6737;51.480;11.962;2022-09-16T07:51:29;2.70;;;1.37;;
13335;SDS011;6737;51.480;11.962;2022-09-16T07:53:56;5.23;;;1.23;;
13335;SDS011;6737;51.480;11.962;2022-09-16T07:56:30;4.67;;;1.30;;
13335;SDS011;6737;51.480;11.962;2022-09-16T07:58:58;1.80;;;1.30;;
13335;SDS011;6737;51.480;11.962;2022-09-16T08:01:28;3.10;;;1.17;;
13335;SDS011;6737;51.480;11.962;2022-09-16T08:03:57;4.80;;;1.30;;
13335;SDS011;6737;51.480;11.962;2022-09-16T08:06:25;3.27;;;1.30;;
13335;SDS011;6737;51.480;11.962;2022-09-16T08:08:53;2.80;;;1.20;;
13335;SDS011;6737;51.480;11.962;2022-09-16T08:11:21;4.63;;;1.50;;
13335;SDS011;6737;51.480;11.962;2022-09-16T08:13:50;5.50;;;1.37;;
13335;SDS011;6737;51.480;11.962;2022-09-16T08:16:17;4.70;;;1.37;;
13335;SDS011;6737;51.480;11.962;2022-09-16T08:18:45;4.03;;;1.30;;
13335;SDS011;6737;51.480;11.962;2022-09-16T08:21:15;3.77;;;1.60;;
13335;SDS011;6737;51.480;11.962;2022-09-16T08:23:43;6.60;;;1.30;;
13335;SDS011;6737;51.480;11.962;2022-09-16T08:26:10;1.73;;;1.10;;
13335;SDS011;6737;51.480;11.962;2022-09-16T08:28:38;5.53;;;1.30;;
13335;SDS011;6737;51.480;11.962;2022-09-16T08:31:06;1.97;;;1.30;;
13335;SDS011;6737;51.480;11.962;2022-09-16T08:33:33;2.20;;;1.30;;
13335;SDS011;6737;51.480;11.962;2022-09-16T08:38:25;3.13;;;1.20;;
13335;SDS011;6737;51.480;11.962;2022-09-16T08:40:52;2.43;;;1.20;;
13335;SDS011;6737;51.480;11.962;2022-09-16T08:43:28;2.80;;;1.20;;
13335;SDS011;6737;51.480;11.962;2022-09-16T08:48:54;3.63;;;1.30;;
13335;SDS011;6737;51.480;11.962;2022-09-16T08:51:25;2.20;;;0.90;;
13335;SDS011;6737;51.480;11.962;2022-09-16T08:54:00;4.30;;;1.07;;
13335;SDS011;6737;51.480;11.962;2022-09-16T08:56:33;2.80;;;0.90;;
13335;SDS011;6737;51.480;11.962;2022-09-16T08:59:01;1.07;;;0.80;;
13335;SDS011;6737;51.480;11.962;2022-09-16T09:01:48;2.03;;;0.90;;
13335;SDS011;6737;51.480;11.962;2022-09-16T09:04:22;1.77;;;0.90;;
13335;SDS011;6737;51.480;11.962;2022-09-16T09:12:12;2.37;;;1.20;;
13335;SDS011;6737;51.480;11.962;2022-09-16T09:23:24;2.63;;;1.33;;
13335;SDS011;6737;51.480;11.962;2022-09-16T09:37:10;2.37;;;1.10;;
13335;SDS011;6737;51.480;11.962;2022-09-16T09:40:00;2.87;;;1.17;;
13335;SDS011;6737;51.480;11.962;2022-09-16T09:45:11;2.33;;;1.00;;
13335;SDS011;6737;51.480;11.962;2022-09-16T09:47:46;2.10;;;1.00;;
13335;SDS011;6737;51.480;11.962;2022-09-16T09:50:22;1.77;;;0.90;;
13335;SDS011;6737;51.480;11.962;2022-09-16T09:53:01;4.00;;;0.90;;
13335;SDS011;6737;51.480;11.962;2022-09-16T09:55:39;1.60;;;0.73;;
13335;SDS011;6737;51.480;11.962;2022-09-16T09:58:15;3.87;;;0.90;;
13335;SDS011;6737;51.480;11.962;2022-09-16T10:00:51;1.90;;;0.90;;
13335;SDS011;6737;51.480;11.962;2022-09-16T10:03:20;1.90;;;0.70;;
13335;SDS011;6737;51.480;11.962;2022-09-16T10:05:46;1.20;;;0.70;;
13335;SDS011;6737;51.480;11.962;2022-09-16T10:10:47;2.57;;;0.90;;
13335;SDS011;6737;51.480;11.962;2022-09-16T10:13:19;1.93;;;0.70;;
13335;SDS011;6737;51.480;11.962;2022-09-16T10:15:46;2.55;;;0.80;;
13335;SDS011;6737;51.480;11.962;2022-09-16T10:18:20;5.13;;;1.00;;
13335;SDS011;6737;51.480;11.962;2022-09-16T10:20:55;5.40;;;1.00;;
13335;SDS011;6737;51.480;11.962;2022-09-16T10:23:27;1.13;;;0.80;;
13335;SDS011;6737;51.480;11.962;2022-09-16T10:26:03;3.50;;;1.48;;
13335;SDS011;6737;51.480;11.962;2022-09-16T10:28:30;1.40;;;0.80;;
13335;SDS011;6737;51.480;11.962;2022-09-16T10:30:57;2.87;;;1.10;;
13335;SDS011;6737;51.480;11.962;2022-09-16T10:36:02;1.23;;;0.70;;
13335;SDS011;6737;51.480;11.962;2022-09-16T10:38:36;2.50;;;0.80;;
13335;SDS011;6737;51.480;11.962;2022-09-16T10:41:08;1.90;;;0.80;;
13335;SDS011;6737;51.480;11.962;2022-09-16T10:43:44;3.03;;;0.80;;
13335;SDS011;6737;51.480;11.962;2022-09-16T10:46:16;3.33;;;1.05;;
13335;SDS011;6737;51.480;11.962;2022-09-16T10:48:43;1.70;;;0.77;;
13335;SDS011;6737;51.480;11.962;2022-09-16T10:51:23;3.17;;;0.90;;
13335;SDS011;6737;51.480;11.962;2022-09-16T10:53:55;1.97;;;0.80;;
13335;SDS011;6737;51.480;11.962;2022-09-16T10:56:24;3.17;;;0.70;;
13335;SDS011;6737;51.480;11.962;2022-09-16T11:04:30;1.60;;;0.90;;
13335;SDS011;6737;51.480;11.962;2022-09-16T11:15:35;4.03;;;0.80;;
13335;SDS011;6737;51.480;11.962;2022-09-16T11:19:16;3.22;;;1.08;;
13335;SDS011;6737;51.480;11.962;2022-09-16T11:29:45;2.97;;;0.90;;
13335;SDS011;6737;51.480;11.962;2022-09-16T11:32:20;3.50;;;0.90;;
13335;SDS011;6737;51.480;11.962;2022-09-16T11:34:51;4.28;;;1.00;;
13335;SDS011;6737;51.480;11.962;2022-09-16T11:37:35;3.75;;;1.10;;
13335;SDS011;6737;51.480;11.962;2022-09-16T11:49:17;2.50;;;0.50;;
13335;SDS011;6737;51.480;11.962;2022-09-16T11:52:00;2.57;;;0.50;;
13335;SDS011;6737;51.480;11.962;2022-09-16T11:57:55;1.33;;;0.60;;
13335;SDS011;6737;51.480;11.962;2022-09-16T12:00:26;1.47;;;0.60;;
13335;SDS011;6737;51.480;11.962;2022-09-16T12:05:26;1.70;;;0.60;;
13335;SDS011;6737;51.480;11.962;2022-09-16T12:14:05;1.10;;;0.60;;
13335;SDS011;6737;51.480;11.962;2022-09-16T12:16:40;0.60;;;0.60;;
13335;SDS011;6737;51.480;11.962;2022-09-16T12:19:19;4.45;;;0.80;;
13335;SDS011;6737;51.480;11.962;2022-09-16T12:22:39;2.07;;;0.70;;
13335;SDS011;6737;51.480;11.962;2022-09-16T12:24:56;1.45;;;0.70;;
13335;SDS011;6737;51.480;11.962;2022-09-16T12:30:19;3.40;;;0.70;;
13335;SDS011;6737;51.480;11.962;2022-09-16T12:32:56;1.25;;;0.68;;
13335;SDS011;6737;51.480;11.962;2022-09-16T12:35:28;1.50;;;0.60;;
13335;SDS011;6737;51.480;11.962;2022-09-16T12:37:58;2.10;;;0.82;;
13335;SDS011;6737;51.480;11.962;2022-09-16T12:40:42;4.22;;;1.00;;
13335;SDS011;6737;51.480;11.962;2022-09-16T12:46:00;3.33;;;0.85;;
13335;SDS011;6737;51.480;11.962;2022-09-16T13:00:03;5.05;;;1.00;;
13335;SDS011;6737;51.480;11.962;2022-09-16T13:02:37;1.02;;;0.80;;
13335;SDS011;6737;51.480;11.962;2022-09-16T13:05:29;2.35;;;0.82;;
13335;SDS011;6737;51.480;11.962;2022-09-16T13:07:59;6.78;;;0.90;;
13335;SDS011;6737;51.480;11.962;2022-09-16T13:10:30;3.50;;;0.93;;
13335;SDS011;6737;51.480;11.962;2022-09-16T13:13:02;7.50;;;1.00;;
13335;SDS011;6737;51.480;11.962;2022-09-16T13:15:30;3.88;;;1.20;;
13335;SDS011;6737;51.480;11.962;2022-09-16T13:20:46;2.35;;;0.82;;
13335;SDS011;6737;51.480;11.962;2022-09-16T13:23:39;2.95;;;0.82;;
13335;SDS011;6737;51.480;11.962;2022-09-16T13:26:08;3.80;;;1.15;;
13335;SDS011;6737;51.480;11.962;2022-09-16T13:28:36;2.53;;;0.80;;
13335;SDS011;6737;51.480;11.962;2022-09-16T13:33:39;3.53;;;1.00;;
13335;SDS011;6737;51.480;11.962;2022-09-16T13:41:13;2.78;;;0.90;;
13335;SDS011;6737;51.480;11.962;2022-09-16T13:43:53;3.63;;;0.90;;
13335;SDS011;6737;51.480;11.962;2022-09-16T13:46:29;5.32;;;1.00;;
13335;SDS011;6737;51.480;11.962;2022-09-16T13:51:28;5.93;;;2.00;;
13335;SDS011;6737;51.480;11.962;2022-09-16T13:54:02;2.67;;;0.70;;
13335;SDS011;6737;51.480;11.962;2022-09-16T13:59:23;1.67;;;0.80;;
13335;SDS011;6737;51.480;11.962;2022-09-16T14:10:30;4.75;;;0.90;;
13335;SDS011;6737;51.480;11.962;2022-09-16T14:13:14;2.05;;;0.90;;
13335;SDS011;6737;51.480;11.962;2022-09-16T14:15:43;2.53;;;1.00;;
13335;SDS011;6737;51.480;11.962;2022-09-16T14:18:15;3.72;;;0.85;;
13335;SDS011;6737;51.480;11.962;2022-09-16T14:23:25;3.13;;;0.90;;
13335;SDS011;6737;51.480;11.962;2022-09-16T14:25:52;3.60;;;1.23;;
13335;SDS011;6737;51.480;11.962;2022-09-16T14:28:22;2.25;;;0.85;;
13335;SDS011;6737;51.480;11.962;2022-09-16T14:30:54;2.60;;;0.95;;
13335;SDS011;6737;51.480;11.962;2022-09-16T14:33:23;3.00;;;0.90;;
13335;SDS011;6737;51.480;11.962;2022-09-16T14:35:53;3.33;;;1.05;;
13335;SDS011;6737;51.480;11.962;2022-09-16T14:38:22;3.97;;;1.00;;
13335;SDS011;6737;51.480;11.962;2022-09-16T14:41:08;3.67;;;1.10;;
13335;SDS011;6737;51.480;11.962;2022-09-16T14:43:38;4.40;;;1.00;;
13335;SDS011;6737;51.480;11.962;2022-09-16T14:46:05;5.43;;;1.10;;
13335;SDS011;6737;51.480;11.962;2022-09-16T14:48:33;2.72;;;0.88;;
13335;SDS011;6737;51.480;11.962;2022-09-16T14:51:03;3.20;;;1.25;;
13335;SDS011;6737;51.480;11.962;2022-09-16T14:53:58;2.05;;;0.90;;
13335;SDS011;6737;51.480;11.962;2022-09-16T14:56:24;1.27;;;0.80;;
13335;SDS011;6737;51.480;11.962;2022-09-16T14:58:51;4.40;;;0.93;;
13335;SDS011;6737;51.480;11.962;2022-09-16T15:01:20;3.20;;;0.95;;
13335;SDS011;6737;51.480;11.962;2022-09-16T15:04:06;3.70;;;0.90;;
13335;SDS011;6737;51.480;11.962;2022-09-16T15:06:44;1.83;;;0.90;;
13335;SDS011;6737;51.480;11.962;2022-09-16T15:09:28;2.75;;;0.70;;
13335;SDS011;6737;51.480;11.962;2022-09-16T15:12:02;2.53;;;0.90;;
13335;SDS011;6737;51.480;11.962;2022-09-16T15:14:29;4.63;;;1.00;;
13335;SDS011;6737;51.480;11.962;2022-09-16T15:16:56;3.67;;;0.93;;
13335;SDS011;6737;51.480;11.962;2022-09-16T15:19:26;5.63;;;1.00;;
13335;SDS011;6737;51.480;11.962;2022-09-16T15:22:03;2.30;;;0.93;;
13335;SDS011;6737;51.480;11.962;2022-09-16T15:24:35;2.28;;;0.98;;
13335;SDS011;6737;51.480;11.962;2022-09-16T15:27:05;2.78;;;1.20;;
13335;SDS011;6737;51.480;11.962;2022-09-16T15:29:33;4.50;;;1.00;;
13335;SDS011;6737;51.480;11.962;2022-09-16T15:32:20;6.25;;;1.08;;
13335;SDS011;6737;51.480;11.962;2022-09-16T15:35:10;3.67;;;1.38;;
13335;SDS011;6737;51.480;11.962;2022-09-16T15:37:43;1.55;;;0.90;;
13335;SDS011;6737;51.480;11.962;2022-09-16T15:40:31;2.45;;;0.85;;
13335;SDS011;6737;51.480;11.962;2022-09-16T15:46:17;3.75;;;0.95;;
13335;SDS011;6737;51.480;11.962;2022-09-16T15:48:47;4.68;;;1.00;;
13335;SDS011;6737;51.480;11.962;2022-09-16T15:51:30;3.50;;;1.00;;
13335;SDS011;6737;51.480;11.962;2022-09-16T15:54:05;2.22;;;0.80;;
13335;SDS011;6737;51.480;11.962;2022-09-16T15:56:33;2.92;;;0.85;;
13335;SDS011;6737;51.480;11.962;2022-09-16T15:59:18;2.22;;;0.95;;
13335;SDS011;6737;51.480;11.962;2022-09-16T16:01:46;1.33;;;0.75;;
13335;SDS011;6737;51.480;11.962;2022-09-16T16:04:26;4.30;;;1.10;;
13335;SDS011;6737;51.480;11.962;2022-09-16T16:09:30;3.47;;;1.25;;
13335;SDS011;6737;51.480;11.962;2022-09-16T16:11:59;6.28;;;1.10;;
13335;SDS011;6737;51.480;11.962;2022-09-16T16:14:28;6.70;;;1.15;;
13335;SDS011;6737;51.480;11.962;2022-09-16T16:17:02;3.05;;;0.88;;
13335;SDS011;6737;51.480;11.962;2022-09-16T16:19:33;2.38;;;0.70;;
13335;SDS011;6737;51.480;11.962;2022-09-16T16:22:00;1.70;;;0.85;;
13335;SDS011;6737;51.480;11.962;2022-09-16T16:24:26;6.95;;;1.10;;
13335;SDS011;6737;51.480;11.962;2022-09-16T16:26:55;3.17;;;1.10;;
13335;SDS011;6737;51.480;11.962;2022-09-16T16:29:21;3.20;;;0.90;;
13335;SDS011;6737;51.480;11.962;2022-09-16T16:31:57;3.10;;;0.90;;
13335;SDS011;6737;51.480;11.962;2022-09-16T16:34:24;3.42;;;0.93;;
13335;SDS011;6737;51.480;11.962;2022-09-16T16:36:50;5.88;;;1.30;;
13335;SDS011;6737;51.480;11.962;2022-09-16T16:39:16;2.53;;;0.90;;
13335;SDS011;6737;51.480;11.962;2022-09-16T16:41:42;2.47;;;0.90;;
13335;SDS011;6737;51.480;11.962;2022-09-16T16:44:07;3.83;;;1.10;;
13335;SDS011;6737;51.480;11.962;2022-09-16T16:46:33;2.17;;;1.10;;
13335;SDS011;6737;51.480;11.962;2022-09-16T16:48:59;4.03;;;1.27;;
13335;SDS011;6737;51.480;11.962;2022-09-16T16:51:25;2.55;;;1.00;;
13335;SDS011;6737;51.480;11.962;2022-09-16T16:53:51;3.40;;;1.03;;
13335;SDS011;6737;51.480;11.962;2022-09-16T16:56:17;4.17;;;1.00;;
13335;SDS011;6737;51.480;11.962;2022-09-16T16:58:43;2.65;;;0.98;;
13335;SDS011;6737;51.480;11.962;2022-09-16T17:01:12;2.88;;;1.13;;
13335;SDS011;6737;51.480;11.962;2022-09-16T17:03:40;5.00;;;0.90;;
13335;SDS011;6737;51.480;11.962;2022-09-16T17:06:08;2.63;;;0.75;;
13335;SDS011;6737;51.480;11.962;2022-09-16T17:08:35;3.45;;;1.10;;
13335;SDS011;6737;51.480;11.962;2022-09-16T17:11:07;2.50;;;0.90;;
13335;SDS011;6737;51.480;11.962;2022-09-16T17:13:38;3.08;;;0.90;;
13335;SDS011;6737;51.480;11.962;2022-09-16T17:16:06;6.07;;;1.00;;
13335;SDS011;6737;51.480;11.962;2022-09-16T17:18:34;3.77;;;0.80;;
13335;SDS011;6737;51.480;11.962;2022-09-16T17:21:04;1.30;;;0.80;;
13335;SDS011;6737;51.480;11.962;2022-09-16T17:23:34;5.73;;;0.90;;
13335;SDS011;6737;51.480;11.962;2022-09-16T17:26:00;3.17;;;0.90;;
13335;SDS011;6737;51.480;11.962;2022-09-16T17:28:27;2.13;;;0.90;;
13335;SDS011;6737;51.480;11.962;2022-09-16T17:30:53;2.10;;;0.80;;
13335;SDS011;6737;51.480;11.962;2022-09-16T17:33:20;4.60;;;1.00;;
13335;SDS011;6737;51.480;11.962;2022-09-16T17:35:45;3.60;;;0.87;;
13335;SDS011;6737;51.480;11.962;2022-09-16T17:38:11;2.70;;;1.00;;
13335;SDS011;6737;51.480;11.962;2022-09-16T17:40:38;4.67;;;1.20;;
13335;SDS011;6737;51.480;11.962;2022-09-16T17:43:04;2.27;;;0.90;;
13335;SDS011;6737;51.480;11.962;2022-09-16T17:45:33;3.30;;;1.20;;
13335;SDS011;6737;51.480;11.962;2022-09-16T17:47:58;6.00;;;1.00;;
13335;SDS011;6737;51.480;11.962;2022-09-16T17:50:24;2.50;;;1.00;;
13335;SDS011;6737;51.480;11.962;2022-09-16T17:52:50;2.63;;;1.27;;
13335;SDS011;6737;51.480;11.962;2022-09-16T17:55:16;3.03;;;1.10;;
13335;SDS011;6737;51.480;11.962;2022-09-16T17:57:42;2.20;;;1.10;;
13335;SDS011;6737;51.480;11.962;2022-09-16T18:00:08;3.50;;;0.90;;
13335;SDS011;6737;51.480;11.962;2022-09-16T18:02:34;7.73;;;1.17;;
13335;SDS011;6737;51.480;11.962;2022-09-16T18:05:00;1.70;;;0.80;;
13335;SDS011;6737;51.480;11.962;2022-09-16T18:07:26;1.83;;;0.80;;